Time;durP1;ratioP1;P1;durP2;ratioP2;P2;SDS_P1;SDS_P2;PMS_P1;PMS_P2;Temp;Humidity;BMP_temperature;BMP_pressure;BME280_temperature;BME280_humidity;BME280_pressure;Samples;Min_cycle;Max_cycle;Signal;HPM_P1;HPM_P2
2022/02/16 00:00:29;;;;;;;;;;;;;;;6.41;100.00;100122.88;2568325;30;137764;-40
2022/02/16 00:02:57;;;;;;;;;;;;;;;6.40;100.00;100125.78;2567061;30;137355;-40
2022/02/16 00:05:24;;;;;;;;;;;;;;;6.41;100.00;100120.16;2569836;30;137214;-40
2022/02/16 00:07:52;;;;;;;;;;;;;;;6.37;100.00;100112.63;2569406;30;138326;-40
2022/02/16 00:10:20;;;;;;;;;;;;;;;6.37;100.00;100115.34;2566885;30;138394;-40
2022/02/16 00:12:48;;;;;;;;;;;;;;;6.37;100.00;100104.50;2569453;30;137948;-40
2022/02/16 00:15:16;;;;;;;;;;;;;;;6.44;100.00;100099.94;2569464;30;137220;-40
2022/02/16 00:17:44;;;;;;;;;;;;;;;6.45;100.00;100098.91;2566497;30;139168;-40
2022/02/16 00:20:12;;;;;;;;;;;;;;;6.43;100.00;100093.69;2569605;30;137553;-40
2022/02/16 00:22:40;;;;;;;;;;;;;;;6.42;100.00;100088.47;2569320;30;138260;-40
2022/02/16 00:25:09;;;;;;;;;;;;;;;6.51;100.00;100086.44;2567930;30;136772;-40
2022/02/16 00:27:37;;;;;;;;;;;;;;;6.47;100.00;100077.84;2569847;30;138180;-40
2022/02/16 00:30:07;;;;;;;;;;;;;;;6.47;100.00;100070.56;2567530;30;138629;-40
2022/02/16 00:32:35;;;;;;;;;;;;;;;6.48;100.00;100088.50;2566720;30;140226;-40
2022/02/16 00:35:04;;;;;;;;;;;;;;;6.50;100.00;100074.75;2569201;30;139208;-40
2022/02/16 00:37:32;;;;;;;;;;;;;;;6.48;100.00;100066.81;2567591;30;139659;-40
2022/02/16 00:40:00;;;;;;;;;;;;;;;6.48;100.00;100061.41;2568941;30;137085;-40
2022/02/16 00:42:30;;;;;;;;;;;;;;;6.42;100.00;100058.66;2568849;30;138209;-40
2022/02/16 00:44:58;;;;;;;;;;;;;;;6.47;100.00;100057.03;2569853;30;136922;-40
2022/02/16 00:47:26;;;;;;;;;;;;;;;6.44;100.00;100043.88;2568638;30;137439;-40
2022/02/16 00:49:54;;;;;;;;;;;;;;;6.54;100.00;100038.06;2569002;30;137197;-40
2022/02/16 00:52:22;;;;;;;;;;;;;;;6.56;100.00;100033.28;2568335;30;140498;-40
2022/02/16 00:54:50;;;;;;;;;;;;;;;6.56;100.00;100029.72;2565550;30;138840;-40
2022/02/16 00:57:19;;;;;;;;;;;;;;;6.61;100.00;100027.22;2568448;30;138396;-40
2022/02/16 00:59:47;;;;;;;;;;;;;;;6.61;100.00;100035.34;2568134;30;139268;-40
2022/02/16 01:02:15;;;;;;;;;;;;;;;6.57;100.00;100032.25;2567883;30;140658;-40
2022/02/16 01:04:43;;;;;;;;;;;;;;;6.62;100.00;100032.47;2566778;30;137233;-40
2022/02/16 01:07:10;;;;;;;;;;;;;;;6.63;100.00;100027.88;2568453;30;140617;-40
2022/02/16 01:09:42;;;;;;;;;;;;;;;6.60;100.00;100017.44;2566766;30;138768;-40
2022/02/16 01:12:11;;;;;;;;;;;;;;;6.65;100.00;100004.13;2569152;30;138425;-40
2022/02/16 01:14:40;;;;;;;;;;;;;;;6.62;100.00;100004.50;2572306;30;137040;-38
2022/02/16 01:17:20;;;;;;;;;;;;;;;6.66;100.00;100003.06;2568053;30;138424;-39
2022/02/16 01:19:55;;;;;;;;;;;;;;;6.67;100.00;100004.75;2568721;30;138912;-36
2022/02/16 01:22:26;;;;;;;;;;;;;;;6.71;100.00;100003.28;2568291;30;139622;-36
2022/02/16 01:24:54;;;;;;;;;;;;;;;6.71;100.00;99992.44;2567387;30;137251;-36
2022/02/16 01:27:24;;;;;;;;;;;;;;;6.71;100.00;99992.44;2566653;30;139087;-36
2022/02/16 01:29:55;;;;;;;;;;;;;;;6.73;100.00;99990.34;2567198;30;140250;-36
2022/02/16 01:32:55;;;;;;;;;;;;;;;6.73;100.00;99978.66;2568075;30;137643;-36
2022/02/16 01:35:30;;;;;;;;;;;;;;;6.72;100.00;99980.53;2568728;30;138390;-36
2022/02/16 01:37:58;;;;;;;;;;;;;;;6.73;100.00;99973.22;2567848;30;138595;-38
2022/02/16 01:40:26;;;;;;;;;;;;;;;6.71;100.00;99968.03;2568816;30;138553;-38
2022/02/16 01:42:57;;;;;;;;;;;;;;;6.70;100.00;99963.66;2567947;30;139779;-36
2022/02/16 01:45:35;;;;;;;;;;;;;;;6.72;100.00;99964.28;2566495;30;139996;-36
2022/02/16 01:48:04;;;;;;;;;;;;;;;6.74;100.00;99950.50;2568194;30;139062;-36
2022/02/16 01:50:32;;;;;;;;;;;;;;;6.73;100.00;99955.09;2567460;30;139450;-36
2022/02/16 01:52:59;;;;;;;;;;;;;;;6.73;100.00;99949.69;2568633;30;137060;-38
2022/02/16 01:55:31;;;;;;;;;;;;;;;6.75;100.00;99950.31;2565682;30;138457;-36
2022/02/16 01:58:00;;;;;;;;;;;;;;;6.76;100.00;99941.13;2568318;30;138614;-36
2022/02/16 02:01:04;;;;;;;;;;;;;;;6.74;100.00;99947.78;2568101;30;136849;-36
2022/02/16 02:03:33;;;;;;;;;;;;;;;6.75;100.00;99944.03;2567589;30;140657;-36
2022/02/16 02:06:12;;;;;;;;;;;;;;;6.72;100.00;99939.03;2569566;30;138981;-36
2022/02/16 02:08:40;;;;;;;;;;;;;;;6.72;100.00;99939.88;2567286;30;138752;-36
2022/02/16 02:11:09;;;;;;;;;;;;;;;6.74;100.00;99939.66;2565874;30;137715;-36
2022/02/16 02:14:13;;;;;;;;;;;;;;;6.74;100.00;99943.22;2567610;30;138322;-36
2022/02/16 02:16:59;;;;;;;;;;;;;;;6.78;100.00;99937.38;2565896;30;138188;-36
2022/02/16 02:19:27;;;;;;;;;;;;;;;6.82;100.00;99923.19;2569543;30;140044;-36
2022/02/16 02:21:58;;;;;;;;;;;;;;;6.81;100.00;99918.81;2567231;30;139184;-36
2022/02/16 02:24:26;;;;;;;;;;;;;;;6.81;100.00;99918.81;2565830;30;140111;-36
2022/02/16 02:26:55;;;;;;;;;;;;;;;6.80;100.00;99914.44;2567281;30;139481;-36
2022/02/16 02:29:22;;;;;;;;;;;;;;;6.79;100.00;99896.50;2566511;30;138918;-36
2022/02/16 02:32:05;;;;;;;;;;;;;;;6.82;100.00;99889.81;2567095;30;138786;-36
2022/02/16 02:34:33;;;;;;;;;;;;;;;6.80;100.00;99886.47;2567435;30;139772;-36
2022/02/16 02:37:01;;;;;;;;;;;;;;;6.84;100.00;99895.84;2567616;30;136815;-36
2022/02/16 02:39:30;;;;;;;;;;;;;;;6.81;100.00;99880.88;2568637;30;140357;-36
2022/02/16 02:41:58;;;;;;;;;;;;;;;6.82;100.00;99871.69;2568393;30;138506;-36
2022/02/16 02:44:25;;;;;;;;;;;;;;;6.85;100.00;99865.00;2568501;30;139879;-37
2022/02/16 02:46:53;;;;;;;;;;;;;;;6.83;100.00;99867.06;2565077;30;138204;-36
2022/02/16 02:49:24;;;;;;;;;;;;;;;6.85;100.00;99867.69;2567269;30;140846;-36
2022/02/16 02:51:55;;;;;;;;;;;;;;;6.84;100.00;99857.91;2567676;30;137094;-36
2022/02/16 02:54:24;;;;;;;;;;;;;;;6.94;100.00;99849.34;2567327;30;138656;-36
2022/02/16 02:56:52;;;;;;;;;;;;;;;6.95;100.00;99854.56;2567870;30;138203;-36
2022/02/16 02:59:21;;;;;;;;;;;;;;;6.95;100.00;99846.41;2568282;30;138287;-36
2022/02/16 03:01:52;;;;;;;;;;;;;;;6.92;100.00;99849.56;2567830;30;138566;-36
2022/02/16 03:04:20;;;;;;;;;;;;;;;6.95;100.00;99841.00;2566230;30;139149;-36
2022/02/16 03:06:48;;;;;;;;;;;;;;;6.98;100.00;99837.00;2568114;30;138616;-36
2022/02/16 03:09:16;;;;;;;;;;;;;;;7.00;100.00;99838.47;2567008;30;140454;-36
2022/02/16 03:11:44;;;;;;;;;;;;;;;7.00;100.00;99816.78;2567691;30;137104;-36
2022/02/16 03:14:11;;;;;;;;;;;;;;;7.03;100.00;99829.09;2566505;30;139229;-36
2022/02/16 03:16:40;;;;;;;;;;;;;;;7.01;100.00;99834.72;2568538;30;136691;-36
2022/02/16 03:19:08;;;;;;;;;;;;;;;7.03;100.00;99835.34;2567454;30;139564;-36
2022/02/16 03:21:36;;;;;;;;;;;;;;;7.01;100.00;99833.88;2566514;30;137158;-36
2022/02/16 03:24:06;;;;;;;;;;;;;;;7.02;100.00;99825.53;2569124;30;138505;-36
2022/02/16 03:26:34;;;;;;;;;;;;;;;7.04;100.00;99828.84;2568059;30;137098;-36
2022/02/16 03:29:02;;;;;;;;;;;;;;;7.09;100.00;99814.66;2566261;30;139870;-36
2022/02/16 03:31:35;;;;;;;;;;;;;;;7.04;100.00;99812.59;2567826;30;138699;-36
2022/02/16 03:34:05;;;;;;;;;;;;;;;7.10;100.00;99804.63;2567919;30;137876;-36
2022/02/16 03:36:40;;;;;;;;;;;;;;;7.04;100.00;99818.00;2568628;30;137133;-36
2022/02/16 03:39:09;;;;;;;;;;;;;;;7.08;100.00;99814.88;2568190;30;139244;-36
2022/02/16 03:41:37;;;;;;;;;;;;;;;7.10;100.00;99820.91;2565636;30;138725;-36
2022/02/16 03:44:05;;;;;;;;;;;;;;;7.05;100.00;99819.69;2565887;30;137464;-36
2022/02/16 03:46:39;;;;;;;;;;;;;;;7.14;100.00;99805.88;2568094;30;138145;-36
2022/02/16 03:49:06;;;;;;;;;;;;;;;7.18;100.00;99817.97;2567879;30;137168;-36
2022/02/16 03:51:34;;;;;;;;;;;;;;;7.18;100.00;99815.25;2567729;30;139234;-36
2022/02/16 03:54:02;;;;;;;;;;;;;;;7.14;100.00;99811.28;2568183;30;136873;-36
2022/02/16 03:56:31;;;;;;;;;;;;;;;7.11;100.00;99801.72;2568363;30;139474;-36
2022/02/16 03:58:59;;;;;;;;;;;;;;;7.15;100.00;99799.38;2564339;30;140212;-36
2022/02/16 04:01:27;;;;;;;;;;;;;;;7.22;100.00;99799.38;2564347;30;139327;-36
2022/02/16 04:03:55;;;;;;;;;;;;;;;7.25;100.00;99791.66;2567723;30;141136;-36
2022/02/16 04:06:25;;;;;;;;;;;;;;;7.28;100.00;99788.50;2567832;30;137956;-36
2022/02/16 04:08:53;;;;;;;;;;;;;;;7.28;100.00;99784.94;2568536;30;137875;-36
2022/02/16 04:11:26;;;;;;;;;;;;;;;7.32;100.00;99787.00;2567742;30;139565;-36
2022/02/16 04:13:55;;;;;;;;;;;;;;;7.32;100.00;99795.16;2567711;30;139279;-36
2022/02/16 04:16:23;;;;;;;;;;;;;;;7.31;100.00;99779.09;2566273;30;139095;-36
2022/02/16 04:18:51;;;;;;;;;;;;;;;7.32;100.00;99775.34;2569190;30;139563;-36
2022/02/16 04:21:19;;;;;;;;;;;;;;;7.29;100.00;99764.88;2568553;30;136935;-36
2022/02/16 04:23:51;;;;;;;;;;;;;;;7.27;100.00;99765.13;2568146;30;139496;-36
2022/02/16 04:26:19;;;;;;;;;;;;;;;7.27;100.00;99756.97;2566011;30;139425;-36
2022/02/16 04:28:51;;;;;;;;;;;;;;;7.29;100.00;99744.03;2568357;30;138255;-36
2022/02/16 04:31:23;;;;;;;;;;;;;;;7.23;100.00;99744.06;2566335;30;137561;-36
2022/02/16 04:33:52;;;;;;;;;;;;;;;7.31;100.00;99741.13;2566994;30;139957;-36
2022/02/16 04:36:26;;;;;;;;;;;;;;;7.31;100.00;99739.22;2566469;30;137712;-36
2022/02/16 04:38:58;;;;;;;;;;;;;;;7.33;100.00;99733.59;2568377;30;138597;-36
2022/02/16 04:41:27;;;;;;;;;;;;;;;7.29;100.00;99725.03;2565974;30;137402;-36
2022/02/16 04:43:57;;;;;;;;;;;;;;;7.34;100.00;99735.25;2568761;30;137244;-36
2022/02/16 04:46:25;;;;;;;;;;;;;;;7.32;100.00;99734.63;2567003;30;139040;-36
2022/02/16 04:48:53;;;;;;;;;;;;;;;7.33;100.00;99728.16;2568661;30;138431;-36
2022/02/16 04:51:21;;;;;;;;;;;;;;;7.30;100.00;99723.16;2567930;30;137286;-36
2022/02/16 04:53:48;;;;;;;;;;;;;;;7.28;100.00;99711.69;2567377;30;140900;-36
2022/02/16 04:56:18;;;;;;;;;;;;;;;7.28;100.00;99704.38;2566157;30;139303;-37
2022/02/16 04:58:46;;;;;;;;;;;;;;;7.27;100.00;99697.28;2569856;30;139784;-36
2022/02/16 05:01:20;;;;;;;;;;;;;;;7.29;100.00;99691.63;2567656;30;137110;-36
2022/02/16 05:03:51;;;;;;;;;;;;;;;7.31;100.00;99687.66;2568672;30;140268;-36
2022/02/16 05:06:20;;;;;;;;;;;;;;;7.29;100.00;99678.91;2569446;30;137128;-36
2022/02/16 05:08:48;;;;;;;;;;;;;;;7.31;100.00;99671.38;2568465;30;138260;-36
2022/02/16 05:11:16;;;;;;;;;;;;;;;7.33;100.00;99668.47;2567982;30;139353;-36
2022/02/16 05:13:54;;;;;;;;;;;;;;;7.32;100.00;99661.38;2565167;30;139708;-36
2022/02/16 05:16:23;;;;;;;;;;;;;;;7.32;100.00;99659.47;2569032;30;139414;-36
2022/02/16 05:18:55;;;;;;;;;;;;;;;7.34;100.00;99654.66;2569194;30;139425;-36
2022/02/16 05:21:24;;;;;;;;;;;;;;;7.34;100.00;99635.66;2566762;30;138084;-36
2022/02/16 05:23:53;;;;;;;;;;;;;;;7.35;100.00;99628.38;2567855;30;140388;-36
2022/02/16 05:26:22;;;;;;;;;;;;;;;7.39;100.00;99617.88;2568513;30;139408;-36
2022/02/16 05:28:50;;;;;;;;;;;;;;;7.40;100.00;99616.84;2567732;30;140245;-36
2022/02/16 05:31:19;;;;;;;;;;;;;;;7.39;100.00;99610.59;2568104;30;138491;-36
2022/02/16 05:33:47;;;;;;;;;;;;;;;7.42;100.00;99598.44;2568043;30;139444;-36
2022/02/16 05:36:19;;;;;;;;;;;;;;;7.42;100.00;99602.00;2567160;30;136916;-36
2022/02/16 05:38:48;;;;;;;;;;;;;;;7.47;100.00;99594.03;2569127;30;141017;-36
2022/02/16 05:41:16;;;;;;;;;;;;;;;7.46;100.00;99589.66;2566933;30;139719;-36
2022/02/16 05:43:44;;;;;;;;;;;;;;;7.47;100.00;99582.34;2564649;30;138313;-36
2022/02/16 05:46:15;;;;;;;;;;;;;;;7.49;100.00;99582.97;2566002;30;137410;-36
2022/02/16 05:48:43;;;;;;;;;;;;;;;7.52;100.00;99584.38;2568181;30;139671;-36
2022/02/16 05:51:11;;;;;;;;;;;;;;;7.53;100.00;99572.47;2568754;30;137076;-36
2022/02/16 05:53:40;;;;;;;;;;;;;;;7.47;100.00;99564.16;2567973;30;138186;-36
2022/02/16 05:56:11;;;;;;;;;;;;;;;7.48;100.00;99557.69;2567748;30;137998;-36
2022/02/16 05:58:39;;;;;;;;;;;;;;;7.47;100.00;99557.94;2568342;30;139701;-36
2022/02/16 06:01:07;;;;;;;;;;;;;;;7.52;100.00;99547.22;2566933;30;138088;-36
2022/02/16 06:03:44;;;;;;;;;;;;;;;7.46;100.00;99537.28;2568023;30;138154;-36
2022/02/16 06:06:13;;;;;;;;;;;;;;;7.44;100.00;99547.53;2568501;30;137117;-36
2022/02/16 06:08:41;;;;;;;;;;;;;;;7.44;100.00;99540.19;2567271;30;137237;-36
2022/02/16 06:11:10;;;;;;;;;;;;;;;7.45;100.00;99538.31;2567312;30;136886;-36
2022/02/16 06:13:40;;;;;;;;;;;;;;;7.52;100.00;99532.81;2568416;30;137095;-37
2022/02/16 06:16:11;;;;;;;;;;;;;;;7.58;100.00;99530.03;2568002;30;139283;-36
2022/02/16 06:18:39;;;;;;;;;;;;;;;7.63;100.00;99522.03;2566945;30;138815;-36
2022/02/16 06:21:08;;;;;;;;;;;;;;;7.71;100.00;99522.81;2567567;30;136640;-36
2022/02/16 06:23:38;;;;;;;;;;;;;;;7.77;100.00;99516.50;2568589;30;140098;-36
2022/02/16 06:26:07;;;;;;;;;;;;;;;7.75;100.00;99507.75;2566484;30;139274;-37
2022/02/16 06:28:37;;;;;;;;;;;;;;;7.86;100.00;99496.09;2568404;30;139812;-36
2022/02/16 06:31:07;;;;;;;;;;;;;;;7.88;100.00;99501.31;2567846;30;139296;-36
2022/02/16 06:33:35;;;;;;;;;;;;;;;7.95;100.00;99495.78;2566869;30;140204;-36
2022/02/16 06:36:03;;;;;;;;;;;;;;;7.98;100.00;99490.75;2567730;30;138015;-36
2022/02/16 06:38:31;;;;;;;;;;;;;;;7.98;100.00;99482.59;2568376;30;140511;-36
2022/02/16 06:41:04;;;;;;;;;;;;;;;7.99;100.00;99483.44;2568019;30;137960;-36
2022/02/16 06:43:32;;;;;;;;;;;;;;;8.01;100.00;99471.28;2567604;30;139510;-36
2022/02/16 06:46:00;;;;;;;;;;;;;;;8.03;100.00;99471.06;2565797;30;139826;-36
2022/02/16 06:48:29;;;;;;;;;;;;;;;8.01;100.00;99468.56;2564761;30;140124;-36
2022/02/16 06:50:57;;;;;;;;;;;;;;;8.02;100.00;99469.41;2565457;30;139718;-36
2022/02/16 06:53:25;;;;;;;;;;;;;;;7.92;100.00;99459.88;2567321;30;140694;-36
2022/02/16 06:55:52;;;;;;;;;;;;;;;7.95;100.00;99463.19;2568818;30;139383;-36
2022/02/16 06:58:40;;;;;;;;;;;;;;;7.96;100.00;99456.75;2567412;30;136796;-37
2022/02/16 07:01:09;;;;;;;;;;;;;;;7.97;100.00;99453.78;2568516;30;137905;-37
2022/02/16 07:03:37;;;;;;;;;;;;;;;7.96;100.00;99448.59;2569099;30;139053;-36
2022/02/16 07:06:15;;;;;;;;;;;;;;;7.94;100.00;99448.81;2567958;30;138968;-37
2022/02/16 07:08:43;;;;;;;;;;;;;;;8.01;100.00;99451.44;2566835;30;138213;-36
2022/02/16 07:11:11;;;;;;;;;;;;;;;7.99;100.00;99448.13;2567986;30;139196;-36
2022/02/16 07:15:27;;;;;;;;;;;;;;;7.96;100.00;99451.31;2567133;30;156209;-40
2022/02/16 07:17:56;;;;;;;;;;;;;;;7.99;100.00;99448.94;2566806;30;138738;-40
2022/02/16 07:20:36;;;;;;;;;;;;;;;7.98;100.00;99441.84;2564689;30;139248;-40
2022/02/16 07:23:09;;;;;;;;;;;;;;;8.00;100.00;99442.44;2567445;30;137953;-40
2022/02/16 07:25:37;;;;;;;;;;;;;;;8.02;100.00;99445.78;2567655;30;139189;-40
2022/02/16 07:28:16;;;;;;;;;;;;;;;8.11;100.00;99440.03;2568623;30;139029;-40
2022/02/16 07:30:48;;;;;;;;;;;;;;;8.13;100.00;99440.63;2568203;30;138278;-40
2022/02/16 07:33:16;;;;;;;;;;;;;;;8.11;100.00;99435.41;2567608;30;138965;-40
2022/02/16 07:35:46;;;;;;;;;;;;;;;8.13;100.00;99433.28;2567614;30;139738;-40
2022/02/16 07:38:13;;;;;;;;;;;;;;;8.19;100.00;99420.69;2568141;30;138076;-40
2022/02/16 07:40:44;;;;;;;;;;;;;;;8.13;100.00;99433.28;2565714;30;137084;-40
2022/02/16 07:43:16;;;;;;;;;;;;;;;8.14;100.00;99423.28;2567197;30;136945;-40
2022/02/16 07:46:03;;;;;;;;;;;;;;;8.14;100.00;99417.84;2568779;30;136678;-40
2022/02/16 07:48:34;;;;;;;;;;;;;;;8.12;100.00;99423.50;2567622;30;138245;-41
2022/02/16 07:51:14;;;;;;;;;;;;;;;8.11;100.00;99421.03;2567319;30;140162;-40
2022/02/16 07:54:01;;;;;;;;;;;;;;;8.12;100.00;99419.97;2568874;30;137541;-40
2022/02/16 07:56:34;;;;;;;;;;;;;;;8.15;100.00;99414.88;2566750;30;138907;-40
2022/02/16 07:59:03;;;;;;;;;;;;;;;8.20;100.00;99409.56;2567339;30;137851;-40
2022/02/16 08:01:33;;;;;;;;;;;;;;;8.26;100.00;99413.25;2567899;30;137288;-40
2022/02/16 08:04:16;;;;;;;;;;;;;;;8.25;100.00;99408.88;2568303;30;139579;-40
2022/02/16 08:06:48;;;;;;;;;;;;;;;8.35;100.00;99401.00;2569356;30;139984;-40
2022/02/16 08:09:17;;;;;;;;;;;;;;;8.34;100.00;99407.47;2568182;30;138219;-40
2022/02/16 08:11:45;;;;;;;;;;;;;;;8.37;100.00;99410.81;2568804;30;140257;-40
2022/02/16 08:14:14;;;;;;;;;;;;;;;8.43;100.00;99399.81;2568607;30;136622;-40
2022/02/16 08:16:51;;;;;;;;;;;;;;;8.47;100.00;99401.00;2567642;30;139462;-40
2022/02/16 08:19:19;;;;;;;;;;;;;;;8.51;100.00;99397.88;2568995;30;136867;-40
2022/02/16 08:21:47;;;;;;;;;;;;;;;8.53;100.00;99407.44;2566965;30;139017;-40
2022/02/16 08:24:15;;;;;;;;;;;;;;;8.53;100.00;99401.19;2567037;30;138759;-40
2022/02/16 08:26:46;;;;;;;;;;;;;;;8.54;100.00;99397.41;2566393;30;138970;-40
2022/02/16 08:29:16;;;;;;;;;;;;;;;8.55;100.00;99385.47;2568165;30;137305;-40
2022/02/16 08:31:46;;;;;;;;;;;;;;;8.57;100.00;99400.47;2568503;30;139144;-40
2022/02/16 08:34:19;;;;;;;;;;;;;;;8.59;100.00;99406.50;2568489;30;138945;-40
2022/02/16 08:36:57;;;;;;;;;;;;;;;8.58;100.00;99402.13;2567360;30;139260;-40
2022/02/16 08:39:25;;;;;;;;;;;;;;;8.61;100.00;99401.66;2567278;30;137364;-40
2022/02/16 08:41:54;;;;;;;;;;;;;;;8.66;100.00;99400.97;2567440;30;137792;-40
2022/02/16 08:44:23;;;;;;;;;;;;;;;8.68;100.00;99401.56;2566111;30;137412;-40
2022/02/16 08:46:51;;;;;;;;;;;;;;;8.71;100.00;99403.81;2568198;30;137055;-40
2022/02/16 08:49:19;;;;;;;;;;;;;;;8.74;100.00;99405.22;2568978;30;137058;-40
2022/02/16 08:51:46;;;;;;;;;;;;;;;8.76;100.00;99411.25;2568261;30;138577;-40
2022/02/16 08:54:14;;;;;;;;;;;;;;;8.80;100.00;99400.75;2569421;30;136809;-40
2022/02/16 08:56:46;;;;;;;;;;;;;;;8.82;100.00;99410.31;2568799;30;138628;-40
2022/02/16 08:59:14;;;;;;;;;;;;;;;8.87;100.00;99417.78;2568662;30;136692;-40
2022/02/16 09:01:43;;;;;;;;;;;;;;;8.94;100.00;99412.22;2567111;30;138334;-40
2022/02/16 09:04:11;;;;;;;;;;;;;;;8.96;100.00;99426.41;2568924;30;137079;-40
2022/02/16 09:07:27;;;;;;;;;;;;;;;8.94;100.00;99421.19;2569305;30;137259;-40
2022/02/16 09:09:26;;;;;;;;;;;;;;;8.96;100.00;99424.50;2568915;30;137813;-40
2022/02/16 09:11:54;;;;;;;;;;;;;;;8.97;100.00;99414.47;2569213;30;138368;-41
2022/02/16 09:14:22;;;;;;;;;;;;;;;8.96;100.00;99424.50;2568152;30;137940;-40
2022/02/16 09:16:50;;;;;;;;;;;;;;;9.01;100.00;99423.81;2570507;30;138601;-40
2022/02/16 09:19:17;;;;;;;;;;;;;;;9.02;100.00;99434.47;2567745;30;137910;-40
2022/02/16 09:21:45;;;;;;;;;;;;;;;9.07;100.00;99426.41;2568523;30;137986;-40
2022/02/16 09:24:13;;;;;;;;;;;;;;;9.12;100.00;99438.47;2567828;30;137032;-40
2022/02/16 09:26:41;;;;;;;;;;;;;;;9.14;100.00;99439.88;2567703;30;138393;-40
2022/02/16 09:29:09;;;;;;;;;;;;;;;9.17;100.00;99425.84;2568674;30;138120;-40
2022/02/16 09:31:37;;;;;;;;;;;;;;;9.19;100.00;99422.84;2568344;30;138401;-40
2022/02/16 09:34:04;;;;;;;;;;;;;;;9.20;100.00;99430.78;2569083;30;136790;-40
2022/02/16 09:36:33;;;;;;;;;;;;;;;9.21;100.00;99428.88;2569256;30;138395;-40
2022/02/16 09:39:00;;;;;;;;;;;;;;;9.26;100.00;99425.47;2568682;30;137936;-40
2022/02/16 09:41:29;;;;;;;;;;;;;;;9.29;100.00;99420.38;2568603;30;138251;-40
2022/02/16 09:43:59;;;;;;;;;;;;;;;9.32;100.00;99433.50;2569067;30;137321;-40
2022/02/16 09:46:28;;;;;;;;;;;;;;;9.32;100.00;99433.50;2568228;30;138334;-40
2022/02/16 09:48:56;;;;;;;;;;;;;;;9.33;100.00;99435.16;2568994;30;136608;-40
2022/02/16 09:51:24;;;;;;;;;;;;;;;9.37;100.00;99440.13;2567547;30;137506;-40
2022/02/16 09:53:52;;;;;;;;;;;;;;;9.40;100.00;99442.38;2569172;30;136932;-40
2022/02/16 09:56:20;;;;;;;;;;;;;;;9.39;100.00;99443.44;2568977;30;138371;-40
2022/02/16 09:58:47;;;;;;;;;;;;;;;9.43;100.00;99445.44;2567697;30;137569;-40
2022/02/16 10:01:16;;;;;;;;;;;;;;;9.45;100.00;99439.75;2567769;30;138438;-40
2022/02/16 10:04:00;;;;;;;;;;;;;;;9.50;100.00;99440.69;2567162;30;137363;-40
2022/02/16 10:06:38;;;;;;;;;;;;;;;9.57;100.00;99450.63;2566953;30;138452;-40
2022/02/16 10:09:07;;;;;;;;;;;;;;;9.59;100.00;99443.88;2569147;30;138223;-40
2022/02/16 10:11:48;;;;;;;;;;;;;;;9.67;100.00;99441.84;2566437;30;138482;-40
2022/02/16 10:14:20;;;;;;;;;;;;;;;9.68;100.00;99447.06;2568619;30;136916;-40
2022/02/16 10:16:48;;;;;;;;;;;;;;;9.74;100.00;99428.91;2568146;30;137191;-40
2022/02/16 10:19:16;;;;;;;;;;;;;;;9.81;100.00;99437.78;2569128;30;136944;-40
2022/02/16 10:22:02;;;;;;;;;;;;;;;9.84;100.00;99445.47;2567950;30;138359;-40
2022/02/16 10:24:29;;;;;;;;;;;;;;;9.91;100.00;99440.72;2567701;30;137198;-40
2022/02/16 10:26:57;;;;;;;;;;;;;;;9.93;100.00;99444.03;2568416;30;139055;-41
2022/02/16 10:29:29;;;;;;;;;;;;;;;9.98;100.00;99447.91;2567689;30;138380;-40
2022/02/16 10:31:57;;;;;;;;;;;;;;;10.00;100.00;99452.06;2567898;30;139176;-40
2022/02/16 10:34:44;;;;;;;;;;;;;;;10.03;100.00;99450.72;2567528;30;138013;-40
2022/02/16 10:37:13;;;;;;;;;;;;;;;10.03;100.00;99448.00;2568944;30;138272;-40
2022/02/16 10:39:41;;;;;;;;;;;;;;;10.08;100.00;99445.41;2568512;30;138081;-40
2022/02/16 10:42:11;;;;;;;;;;;;;;;10.09;100.00;99452.50;2568697;30;139151;-40
2022/02/16 10:44:40;;;;;;;;;;;;;;;10.11;100.00;99452.25;2569396;30;137091;-40
2022/02/16 10:47:08;;;;;;;;;;;;;;;10.11;100.00;99460.44;2567346;30;138256;-40
2022/02/16 10:49:37;;;;;;;;;;;;;;;10.14;100.00;99451.75;2564992;30;136741;-40
2022/02/16 10:52:10;;;;;;;;;;;;;;;10.24;100.00;99448.41;2568198;30;138279;-40
2022/02/16 10:54:38;;;;;;;;;;;;;;;10.28;100.00;99447.69;2568366;30;136769;-40
2022/02/16 10:57:06;;;;;;;;;;;;;;;10.33;100.00;99430.56;2566419;30;138026;-40
2022/02/16 10:59:35;;;;;;;;;;;;;;;10.36;100.00;99438.28;2568305;30;137277;-40
2022/02/16 11:02:04;;;;;;;;;;;;;;;10.41;100.00;99446.59;2567069;30;139461;-41
2022/02/16 11:04:33;;;;;;;;;;;;;;;10.45;100.00;99452.34;2565719;30;137370;-40
2022/02/16 11:07:02;;;;;;;;;;;;;;;10.47;100.00;99447.47;2568487;30;138382;-41
2022/02/16 11:09:33;;;;;;;;;;;;;;;10.52;100.00;99438.56;2568070;30;137265;-41
2022/02/16 11:12:03;;;;;;;;;;;;;;;10.63;100.00;99424.88;2567754;30;137386;-40
2022/02/16 11:14:33;;;;;;;;;;;;;;;10.70;100.00;99419.25;2568906;30;136796;-40
2022/02/16 11:17:01;;;;;;;;;;;;;;;10.78;100.00;99409.84;2567989;30;138520;-41
2022/02/16 11:19:35;;;;;;;;;;;;;;;10.81;100.00;99414.78;2568026;30;137210;-40
2022/02/16 11:22:06;;;;;;;;;;;;;;;10.86;100.00;99408.56;2568045;30;138950;-40
2022/02/16 11:24:38;;;;;;;;;;;;;;;10.73;100.00;99386.03;2568372;30;137146;-41
2022/02/16 11:27:26;;;;;;;;;;;;;;;10.87;100.00;99383.78;2568293;30;137530;-40
2022/02/16 11:30:05;;;;;;;;;;;;;;;10.85;100.00;99393.28;2568664;30;137159;-41
2022/02/16 11:32:39;;;;;;;;;;;;;;;10.93;100.00;99388.22;2568227;30;138316;-40
2022/02/16 11:35:16;;;;;;;;;;;;;;;10.94;100.00;99389.88;2569119;30;136971;-41
2022/02/16 11:37:46;;;;;;;;;;;;;;;10.89;100.00;99372.63;2569326;30;136992;-40
2022/02/16 11:40:16;;;;;;;;;;;;;;;11.06;100.00;99381.59;2568523;30;137029;-41
2022/02/16 11:42:46;;;;;;;;;;;;;;;11.08;100.00;99381.34;2568893;30;138201;-40
2022/02/16 11:45:15;;;;;;;;;;;;;;;11.11;100.00;99390.94;2569276;30;136941;-40
2022/02/16 11:47:43;;;;;;;;;;;;;;;11.13;100.00;99386.03;2568731;30;138456;-40
2022/02/16 11:50:17;;;;;;;;;;;;;;;11.09;100.00;99388.47;2568699;30;137801;-40
2022/02/16 11:52:58;;;;;;;;;;;;;;;11.08;100.00;99386.81;2567610;30;138375;-40
2022/02/16 11:55:25;;;;;;;;;;;;;;;11.07;100.00;99380.53;2569355;30;136790;-40
2022/02/16 11:57:57;;;;;;;;;;;;;;;11.11;100.00;99363.63;2569248;30;139156;-41
2022/02/16 12:00:27;;;;;;;;;;;;;;;11.14;100.00;99354.94;2569078;30;137001;-40
2022/02/16 12:02:55;;;;;;;;;;;;;;;11.16;100.00;99355.53;2569063;30;139019;-40
2022/02/16 12:05:45;;;;;;;;;;;;;;;11.15;100.00;99354.69;2568231;30;137083;-40
2022/02/16 12:08:23;;;;;;;;;;;;;;;11.17;100.00;99362.66;2569377;30;137499;-41
2022/02/16 12:10:55;;;;;;;;;;;;;;;11.17;100.00;99370.84;2567297;30;137174;-40
2022/02/16 12:13:24;;;;;;;;;;;;;;;11.14;100.00;99363.97;2568237;30;139266;-41
2022/02/16 12:15:55;;;;;;;;;;;;;;;11.15;100.00;99348.44;2570007;30;137087;-41
2022/02/16 12:18:24;;;;;;;;;;;;;;;11.21;100.00;99353.69;2569119;30;138678;-41
2022/02/16 12:20:53;;;;;;;;;;;;;;;11.29;100.00;99338.78;2566785;30;137628;-41
2022/02/16 12:23:21;;;;;;;;;;;;;;;11.30;100.00;99342.34;2569198;30;138468;-41
2022/02/16 12:26:02;;;;;;;;;;;;;;;11.32;100.00;99354.66;2566957;30;137361;-41
2022/02/16 12:28:44;;;;;;;;;;;;;;;11.40;100.00;99367.03;2567351;30;138973;-41
2022/02/16 12:31:12;;;;;;;;;;;;;;;11.40;100.00;99368.94;2569160;30;137419;-41
2022/02/16 12:33:49;;;;;;;;;;;;;;;11.37;100.00;99367.53;2567790;30;137473;-41
2022/02/16 12:36:17;;;;;;;;;;;;;;;11.41;100.00;99362.41;2569495;30;136748;-40
2022/02/16 12:38:48;;;;;;;;;;;;;;;11.45;100.00;99358.09;2565256;30;138087;-41
2022/02/16 12:41:17;;;;;;;;;;;;;;;11.53;100.00;99352.19;2568306;30;138062;-40
2022/02/16 12:43:49;;;;;;;;;;;;;;;11.59;100.00;99359.34;2568099;30;138291;-41
2022/02/16 12:46:17;;;;;;;;;;;;;;;11.65;100.00;99352.84;2569977;30;137055;-41
2022/02/16 12:48:46;;;;;;;;;;;;;;;11.70;100.00;99343.09;2569277;30;138247;-41
2022/02/16 12:51:24;;;;;;;;;;;;;;;11.74;100.00;99339.56;2569217;30;137056;-41